METAR Data
IDs: Format: Raw Decoded Include TAF

Data at: 1346 UTC 26 Feb 2021

EGCN 261320Z 28010KT 250V310 9999 SCT033 11/03 Q1037